Huvudsida
METAR-TAF:

METAR-TAF

Flygplatser :

Ålborgs flygplats

Ålborg, Danmark

latitud: 57-06N, longitud: 009-51E, höjd: 3 m

Aktuellt väderrapport

Denna rapport gjordes för 25 minuter sedan, klockan 03:35 UTC
Vind 7 kt från syd/sydväst
Temperatur 3°C
Fuktighet 100%
Tryck 1000 hPa
Sikt 10 km eller mer

METAR: EKYT 190335Z AUTO 21007KT 9999 SCT010/// BKN013/// BKN110/// 03/03 Q1000

Tid: 05:00 (04:00 UTC)

Väderprognos

Denna rapport gjordes för 1 timme och 56 minuter sedan, klockan 02:04 UTC
Prognos gäller från 19 kl. 03 UTC till 20 kl. 03 UTC
Vind 10 kt från sydväst
Sikt 10 km eller mer
Brutna moln på en höjd av 2000 ft
Temporärt
från 19 kl. 03 UTC till 19 kl. 20 UTC
Sikt: 6000 m
Spridda moln på en höjd av 2000 ft, Cumulonimbus.
lätta regnskurar

TAF: EKYT 190204Z 1903/2003 23010KT 9999 BKN020 TEMPO 1903/1920 6000 -SHRA SCT020CB

Aktuella väderrapporter och prognoser från 4000 flygplatser (METAR- och TAF-rapporter).

De tillgängliga stationerna syns som gula och röda prickar på kartan.

För musen över prickarna för att se namnen på stationerna.

Klicka sedan för att få väderrapporter och prognoser.

För att ändra kartan: Klicka på de gröna knapparna med ett svart kors på för att zooma in; den gröna knappen med ett streck på för att zooma ut; eller på de gröna pilarna för angränsande kartor.


METAR-TAF: